Time;durP1;ratioP1;P1;durP2;ratioP2;P2;SDS_P1;SDS_P2;PMS_P1;PMS_P2;Temp;Humidity;BMP_temperature;BMP_pressure;BME280_temperature;BME280_humidity;BME280_pressure;Samples;Min_cycle;Max_cycle;Signal;HPM_P1;HPM_P2
2022/04/26 03:50:28;;;;;;;12.50;6.10;;;;;;;13.19;79.94;99693.72;31335757;28;20056;-69
2022/04/26 04:05:30;;;;;;;12.40;6.17;;;;;;;13.57;80.53;99698.91;31345860;28;20053;-69
2022/04/26 04:20:32;;;;;;;14.73;5.87;;;;;;;14.08;77.44;99697.72;31352292;28;20127;-71
2022/04/26 04:35:34;;;;;;;10.97;5.37;;;;;;;14.74;75.38;99703.56;31362054;28;20045;-71
2022/04/26 04:50:36;;;;;;;12.07;6.57;;;;;;;15.50;72.96;99713.47;31349007;28;20061;-69
2022/04/26 05:05:38;;;;;;;17.30;6.77;;;;;;;16.14;70.42;99710.44;31385564;28;20063;-70
2022/04/26 05:20:40;;;;;;;11.67;6.10;;;;;;;17.03;67.97;99717.72;31372724;28;20056;-69
2022/04/26 05:35:42;;;;;;;10.68;5.95;;;;;;;18.09;64.31;99722.16;31388928;28;20047;-69
2022/04/26 05:50:44;;;;;;;10.77;4.57;;;;;;;19.14;59.46;99716.41;31400489;28;20060;-70
2022/04/26 06:05:46;;;;;;;7.22;4.25;;;;;;;19.85;56.54;99720.25;31391444;28;20040;-69
2022/04/26 06:20:48;;;;;;;6.55;3.33;;;;;;;20.39;55.15;99723.06;31351601;28;20049;-71
2022/04/26 06:35:50;;;;;;;4.18;2.65;;;;;;;21.55;48.58;99726.59;31377892;28;20048;-71
2022/04/26 06:50:56;;;;;;;3.28;1.75;;;;;;;22.36;43.44;99733.75;31402434;28;20107;-70
2022/04/26 07:05:59;;;;;;;3.78;2.20;;;;;;;23.21;44.40;99721.75;31379559;28;20049;-72
2022/04/26 07:21:00;;;;;;;6.03;2.10;;;;;;;23.98;42.68;99727.91;31359245;28;20060;-70
2022/04/26 07:36:03;;;;;;;4.43;1.97;;;;;;;24.20;42.08;99717.84;31373933;28;20052;-70
2022/04/26 07:51:05;;;;;;;4.10;2.28;;;;;;;24.65;41.39;99713.28;31376929;28;20060;-76
2022/04/26 08:06:10;;;;;;;7.17;3.33;;;;;;;25.06;40.87;99728.88;31354397;28;20507;-78
2022/04/26 08:21:15;;;;;;;5.25;2.72;;;;;;;25.29;39.29;99718.19;31355092;28;20059;-76
2022/04/26 08:36:18;;;;;;;9.95;1.90;;;;;;;25.85;37.88;99723.56;31354273;28;20148;-76
2022/04/26 08:51:21;;;;;;;2.80;1.77;;;;;;;26.62;35.24;99731.69;31329918;28;20398;-79
2022/04/26 09:06:40;;;;;;;3.38;1.52;;;;;;;26.35;32.91;99735.81;31386743;28;20048;-76
2022/04/26 09:21:54;;;;;;;3.58;1.20;;;;;;;26.40;31.02;99738.47;31382390;28;20060;-70
2022/04/26 09:37:04;;;;;;;2.72;0.95;;;;;;;27.18;30.33;99745.16;31350282;28;20492;-69
2022/04/26 09:52:10;;;;;;;1.92;1.10;;;;;;;27.30;28.92;99737.28;31347769;28;20480;-77
2022/04/26 10:07:17;;;;;;;2.65;1.30;;;;;;;27.88;28.08;99733.31;31368024;28;20056;-69
2022/04/26 10:22:52;;;;;;;2.53;0.80;;;;;;;28.10;27.77;99738.31;31377545;28;20481;-72
2022/04/26 10:38:15;;;;;;;1.38;0.77;;;;;;;28.12;27.69;99724.53;31375567;28;20057;-71
2022/04/26 10:53:45;;;;;;;1.27;0.77;;;;;;;28.66;25.72;99713.66;31367500;28;20132;-71
2022/04/26 11:09:05;;;;;;;2.37;1.20;;;;;;;28.76;26.63;99723.00;31357595;28;20041;-69
2022/04/26 11:39:41;;;;;;;2.97;1.45;;;;;;;26.96;29.57;99717.06;31345112;28;20056;-71
2022/04/26 11:54:43;;;;;;;2.60;1.40;;;;;;;25.34;32.32;99709.00;31327826;28;20049;-71
2022/04/26 12:09:45;;;;;;;8.45;3.53;;;;;;;24.29;34.77;99692.56;31336489;28;20472;-76
2022/04/26 12:24:51;;;;;;;3.00;1.40;;;;;;;23.83;37.55;99697.09;31345135;28;20128;-74
2022/04/26 12:40:05;;;;;;;9.82;2.03;;;;;;;23.77;38.59;99693.63;31354841;28;20053;-70
2022/04/26 12:55:07;;;;;;;4.78;2.40;;;;;;;23.29;38.98;99683.94;31337145;28;20040;-70
2022/04/26 13:10:10;;;;;;;7.57;2.40;;;;;;;23.20;39.94;99681.47;31381215;28;20087;-74
2022/04/26 13:25:12;;;;;;;4.10;1.30;;;;;;;23.14;40.88;99680.81;31370689;28;20060;-84
2022/04/26 13:40:14;;;;;;;6.80;2.47;;;;;;;23.07;41.43;99698.72;31368459;28;20052;-76
2022/04/26 13:55:17;;;;;;;5.33;2.07;;;;;;;22.82;42.14;99691.56;31379269;28;20053;-70
2022/04/26 14:10:20;;;;;;;4.90;3.00;;;;;;;22.57;43.94;99687.91;31360176;28;20056;-75
2022/04/26 14:25:22;;;;;;;3.17;1.30;;;;;;;22.63;43.23;99680.34;31380496;28;20220;-76
2022/04/26 14:40:24;;;;;;;272.63;73.77;;;;;;;22.74;40.97;99698.88;31388676;28;20049;-78
2022/04/26 14:55:32;;;;;;;3.87;1.67;;;;;;;22.63;41.09;99696.94;31385373;28;20084;-73
2022/04/26 15:10:34;;;;;;;2.90;1.75;;;;;;;22.35;40.97;99704.59;31372951;28;20045;-77
2022/04/26 15:25:36;;;;;;;2.13;1.17;;;;;;;22.12;42.04;99715.00;31358688;28;20052;-75
2022/04/26 15:40:43;;;;;;;4.15;2.15;;;;;;;21.87;42.21;99716.78;31365796;28;20053;-70
2022/04/26 15:55:45;;;;;;;7.72;1.02;;;;;;;21.62;42.48;99723.34;31370148;28;20037;-69
2022/04/26 16:26:11;;;;;;;9.00;3.95;;;;;;;20.91;43.97;99744.81;31377986;28;20063;-70
2022/04/26 16:41:12;;;;;;;6.78;2.53;;;;;;;20.61;44.51;99772.81;31385153;28;20057;-71
2022/04/26 16:56:15;;;;;;;3.63;1.42;;;;;;;20.30;45.63;99786.66;31427281;28;20048;-72
2022/04/26 17:26:37;;;;;;;2.38;1.20;;;;;;;19.92;46.55;99802.44;31385231;28;20639;-71
2022/04/26 17:41:40;;;;;;;1.83;1.15;;;;;;;19.80;47.11;99830.38;31365020;28;20908;-70
2022/04/26 17:56:43;;;;;;;8.13;1.70;;;;;;;19.64;47.91;99845.50;31392609;28;20051;-75
2022/04/26 18:11:46;;;;;;;6.03;1.75;;;;;;;19.43;48.71;99861.28;31362328;28;20073;-75
2022/04/26 18:26:47;;;;;;;14.73;7.18;;;;;;;19.12;49.78;99864.72;31384818;28;20051;-72
2022/04/26 18:41:56;;;;;;;4.45;1.77;;;;;;;18.85;50.81;99884.38;31355162;28;20075;-72
2022/04/26 18:56:58;;;;;;;31.95;8.88;;;;;;;18.61;51.22;99896.31;31388382;28;20060;-71
2022/04/26 19:12:16;;;;;;;8.05;2.85;;;;;;;18.40;51.92;99908.44;31320549;28;20114;-73
2022/04/26 19:27:17;;;;;;;5.55;1.77;;;;;;;18.15;52.51;99922.78;31330952;28;20071;-72
2022/04/26 19:42:19;;;;;;;12.70;4.15;;;;;;;17.98;53.10;99936.97;31332196;28;20057;-72
2022/04/26 19:57:22;;;;;;;6.50;1.88;;;;;;;17.76;53.62;99936.56;31327136;28;20057;-72
2022/04/26 20:12:24;;;;;;;5.32;2.00;;;;;;;17.61;54.07;99946.75;31335892;28;20056;-72
2022/04/26 20:42:47;;;;;;;33.03;7.30;;;;;;;17.26;55.15;99966.50;31359640;28;20111;-73
2022/04/26 20:57:49;;;;;;;7.43;2.35;;;;;;;17.00;56.06;99970.94;31348756;28;20056;-74
2022/04/26 21:28:11;;;;;;;3.33;1.77;;;;;;;16.70;56.77;100000.91;31404980;28;20048;-78
2022/04/26 21:43:13;;;;;;;2.15;1.50;;;;;;;16.50;57.86;100027.28;31333845;28;20076;-80
2022/04/26 21:58:15;;;;;;;3.77;2.03;;;;;;;16.01;59.43;100031.78;31365337;28;20056;-78
2022/04/26 22:13:18;;;;;;;4.83;2.10;;;;;;;15.51;62.46;100032.31;31386568;28;20466;-78
2022/04/26 22:28:20;;;;;;;4.63;2.27;;;;;;;15.04;65.39;100044.31;31381906;28;20431;-79
2022/04/26 22:43:22;;;;;;;7.83;3.67;;;;;;;14.67;68.29;100044.13;31371775;28;20048;-79
2022/04/26 22:58:24;;;;;;;15.97;4.47;;;;;;;14.40;70.67;100046.69;31397309;28;20106;-78
2022/04/26 23:13:26;;;;;;;13.40;6.20;;;;;;;14.24;72.16;100055.06;31361120;28;20523;-77
2022/04/26 23:28:28;;;;;;;17.87;7.60;;;;;;;14.00;74.58;100063.69;31387154;28;20065;-78
2022/04/26 23:43:30;;;;;;;27.90;12.43;;;;;;;13.91;76.20;100077.25;31363997;28;20049;-79
2022/04/26 23:58:32;;;;;;;21.07;10.13;;;;;;;13.78;77.30;100084.72;31336702;28;20389;-79
